createdAt,value
2022-08-14T00:01:03.936Z,4.20
2022-08-14T00:03:40.733Z,4.30
2022-08-14T00:06:25.635Z,4.60
2022-08-14T00:08:59.182Z,4.30
2022-08-14T00:11:31.180Z,4.13
2022-08-14T00:14:01.953Z,4.00
2022-08-14T00:16:41.251Z,4.73
2022-08-14T00:19:21.184Z,4.53
2022-08-14T00:21:50.958Z,4.40
2022-08-14T00:24:23.165Z,4.70
2022-08-14T00:26:57.209Z,4.33
2022-08-14T00:29:25.397Z,4.50
2022-08-14T00:31:56.612Z,4.97
2022-08-14T00:34:36.507Z,3.90
2022-08-14T00:37:05.567Z,4.17
2022-08-14T00:39:32.833Z,3.97
2022-08-14T00:41:59.917Z,4.27
2022-08-14T00:44:32.556Z,4.17
2022-08-14T00:47:10.846Z,4.03
2022-08-14T00:49:43.202Z,4.30
2022-08-14T00:52:14.242Z,4.60
2022-08-14T00:54:45.744Z,4.13
2022-08-14T00:57:12.780Z,4.60
2022-08-14T00:59:39.602Z,4.53
2022-08-14T01:02:09.430Z,4.43
2022-08-14T01:04:51.880Z,4.70
2022-08-14T01:07:22.857Z,4.23
2022-08-14T01:09:55.830Z,4.83
2022-08-14T01:12:27.065Z,4.80
2022-08-14T01:15:02.183Z,4.67
2022-08-14T01:17:50.740Z,4.80
2022-08-14T01:20:40.473Z,4.70
2022-08-14T01:23:16.167Z,4.50
2022-08-14T01:25:51.351Z,4.67
2022-08-14T01:28:46.145Z,4.93
2022-08-14T01:31:12.273Z,4.87
2022-08-14T01:33:59.138Z,5.47
2022-08-14T01:36:36.976Z,4.73
2022-08-14T01:39:15.181Z,4.90
2022-08-14T01:41:45.721Z,5.30
2022-08-14T01:44:33.260Z,5.00
2022-08-14T01:47:09.665Z,4.50
2022-08-14T01:49:46.053Z,5.37
2022-08-14T01:52:34.504Z,4.97
2022-08-14T01:55:01.423Z,5.40
2022-08-14T01:57:49.449Z,5.30
2022-08-14T02:00:16.808Z,4.90
2022-08-14T02:02:46.595Z,5.43
2022-08-14T02:05:14.029Z,5.83
2022-08-14T02:07:55.362Z,5.67
2022-08-14T02:10:26.047Z,5.20
2022-08-14T02:12:57.602Z,5.23
2022-08-14T02:15:26.428Z,5.10
2022-08-14T02:17:53.473Z,5.30
2022-08-14T02:20:23.637Z,5.23
2022-08-14T02:22:54.830Z,5.63
2022-08-14T02:25:22.700Z,5.97
2022-08-14T02:28:25.936Z,5.57
2022-08-14T02:30:43.363Z,5.70
2022-08-14T02:33:12.247Z,5.67
2022-08-14T02:35:43.483Z,5.83
2022-08-14T02:38:11.831Z,5.67
2022-08-14T02:40:58.096Z,5.47
2022-08-14T02:43:25.017Z,5.37
2022-08-14T02:46:06.275Z,6.00
2022-08-14T02:49:03.761Z,5.43
2022-08-14T02:51:30.377Z,5.40
2022-08-14T02:53:58.463Z,5.37
2022-08-14T02:56:30.164Z,5.97
2022-08-14T02:59:15.972Z,5.87
2022-08-14T03:01:50.279Z,5.97
2022-08-14T03:04:20.627Z,5.67
2022-08-14T03:06:57.091Z,6.20
2022-08-14T03:09:25.732Z,6.17
2022-08-14T03:12:12.532Z,5.97
2022-08-14T03:14:49.320Z,5.40
2022-08-14T03:17:16.097Z,5.03
2022-08-14T03:19:44.310Z,4.97
2022-08-14T03:22:17.681Z,5.30
2022-08-14T03:24:44.736Z,5.40
2022-08-14T03:27:13.858Z,5.70
2022-08-14T03:29:40.934Z,6.03
2022-08-14T03:32:08.370Z,5.83
2022-08-14T03:34:48.112Z,6.10
2022-08-14T03:37:51.035Z,6.23
2022-08-14T03:40:12.211Z,5.53
2022-08-14T03:42:45.442Z,5.20
2022-08-14T03:45:25.324Z,5.40
2022-08-14T03:48:02.243Z,5.73
2022-08-14T03:50:31.015Z,5.67
2022-08-14T03:53:01.664Z,6.13
2022-08-14T03:55:30.343Z,5.80
2022-08-14T03:57:58.145Z,6.13
2022-08-14T04:00:43.182Z,5.97
2022-08-14T04:03:17.952Z,5.93
2022-08-14T04:05:49.046Z,6.03
2022-08-14T04:08:29.196Z,6.30
2022-08-14T04:11:01.971Z,6.17
2022-08-14T04:13:33.917Z,5.93
2022-08-14T04:16:12.764Z,6.20
2022-08-14T04:18:46.178Z,6.03
2022-08-14T04:21:14.846Z,5.90
2022-08-14T04:23:44.009Z,6.20
2022-08-14T04:26:14.978Z,5.73
2022-08-14T04:29:07.476Z,5.47
2022-08-14T04:33:03.021Z,5.50
2022-08-14T04:34:28.199Z,5.60
2022-08-14T04:37:22.180Z,6.73
2022-08-14T04:40:12.717Z,5.63
2022-08-14T04:42:59.258Z,5.53
2022-08-14T04:45:35.557Z,5.70
2022-08-14T04:48:12.983Z,5.77
2022-08-14T04:50:53.786Z,5.77
2022-08-14T04:53:26.386Z,6.37
2022-08-14T04:56:02.741Z,6.57
2022-08-14T04:58:33.951Z,6.43
2022-08-14T05:01:03.443Z,5.63
2022-08-14T05:03:33.443Z,5.23
2022-08-14T05:06:03.806Z,6.07
2022-08-14T05:08:57.229Z,5.80
2022-08-14T05:11:20.653Z,6.63
2022-08-14T05:16:36.537Z,6.90
2022-08-14T05:19:25.084Z,6.23
2022-08-14T05:21:59.471Z,6.47
2022-08-14T05:24:29.528Z,5.93
2022-08-14T05:26:57.012Z,6.63
2022-08-14T05:29:26.400Z,6.77
2022-08-14T05:31:58.172Z,6.83
2022-08-14T05:34:31.642Z,7.17
2022-08-14T05:37:02.442Z,6.90
2022-08-14T05:39:31.737Z,6.73
2022-08-14T05:42:00.720Z,7.87
2022-08-14T05:44:30.625Z,7.80
2022-08-14T05:46:59.261Z,6.87
2022-08-14T05:49:33.142Z,7.30
2022-08-14T05:52:02.707Z,7.60
2022-08-14T05:54:35.577Z,7.47
2022-08-14T05:57:05.120Z,7.27
2022-08-14T05:59:39.324Z,7.63
2022-08-14T06:02:10.790Z,7.53
2022-08-14T06:04:47.991Z,7.50
2022-08-14T06:07:16.536Z,7.77
2022-08-14T06:09:43.532Z,7.00
2022-08-14T06:12:31.487Z,7.07
2022-08-14T06:15:08.088Z,7.27
2022-08-14T06:17:55.718Z,7.10
2022-08-14T06:20:26.371Z,7.33
2022-08-14T06:22:55.147Z,7.77
2022-08-14T06:25:23.636Z,8.03
2022-08-14T06:27:52.598Z,7.50
2022-08-14T06:30:22.945Z,7.87
2022-08-14T06:32:53.046Z,7.43
2022-08-14T06:35:20.869Z,8.23
2022-08-14T06:37:51.940Z,7.67
2022-08-14T06:40:27.183Z,8.33
2022-08-14T06:43:03.660Z,7.03
2022-08-14T06:45:32.121Z,7.57
2022-08-14T06:48:01.098Z,7.70
2022-08-14T06:50:29.995Z,7.97
2022-08-14T06:52:58.778Z,8.70
2022-08-14T06:55:27.720Z,7.93
2022-08-14T06:57:55.145Z,8.47
2022-08-14T07:00:30.821Z,8.57
2022-08-14T07:03:17.570Z,8.00
2022-08-14T07:05:55.936Z,8.00
2022-08-14T07:08:31.497Z,8.03
2022-08-14T07:11:04.011Z,7.63
2022-08-14T07:13:31.405Z,7.87
2022-08-14T07:16:00.736Z,7.70
2022-08-14T07:18:34.730Z,8.17
2022-08-14T07:21:04.469Z,7.20
2022-08-14T07:23:31.573Z,7.13
2022-08-14T07:26:00.039Z,7.47
2022-08-14T07:28:31.342Z,7.00
2022-08-14T07:31:05.044Z,6.83
2022-08-14T07:33:36.758Z,7.10
2022-08-14T07:36:26.421Z,6.93
2022-08-14T07:38:54.037Z,6.70
2022-08-14T07:41:20.701Z,7.37
2022-08-14T07:43:55.294Z,6.63
2022-08-14T07:46:29.131Z,7.20
2022-08-14T07:48:57.133Z,7.10
2022-08-14T07:51:24.112Z,7.97
2022-08-14T07:53:57.061Z,6.77
2022-08-14T07:56:48.048Z,7.20
2022-08-14T07:59:12.830Z,6.10
2022-08-14T08:01:48.320Z,6.17
2022-08-14T08:04:27.055Z,7.00
2022-08-14T08:06:54.944Z,6.90
2022-08-14T08:09:31.949Z,6.20
2022-08-14T08:12:04.565Z,6.20
2022-08-14T08:14:56.939Z,6.90
2022-08-14T08:17:24.239Z,6.00
2022-08-14T08:19:51.848Z,6.13
2022-08-14T08:22:19.107Z,6.20
2022-08-14T08:24:46.538Z,5.73
2022-08-14T08:27:21.395Z,5.77
2022-08-14T08:29:50.709Z,5.10
2022-08-14T08:32:18.434Z,5.83
2022-08-14T08:34:46.800Z,5.85
2022-08-14T08:37:14.698Z,5.57
2022-08-14T08:40:01.799Z,5.35
2022-08-14T08:42:38.734Z,4.97
2022-08-14T08:45:19.277Z,4.93
2022-08-14T08:47:47.200Z,4.43
2022-08-14T08:53:02.850Z,4.47
2022-08-14T08:55:35.953Z,4.07
2022-08-14T08:58:12.518Z,3.72
2022-08-14T09:00:48.753Z,4.28
2022-08-14T09:03:20.582Z,4.40
2022-08-14T09:05:58.033Z,4.20
2022-08-14T09:08:33.975Z,4.00
2022-08-14T09:11:18.741Z,3.92
2022-08-14T09:13:51.976Z,4.00
2022-08-14T09:16:23.674Z,3.85
2022-08-14T09:18:53.219Z,3.65
2022-08-14T09:21:23.866Z,3.72
2022-08-14T09:24:29.353Z,3.53
2022-08-14T09:26:43.803Z,3.47
2022-08-14T09:29:16.401Z,3.13
2022-08-14T09:31:53.262Z,3.28
2022-08-14T09:34:27.181Z,3.40
2022-08-14T09:37:19.277Z,3.05
2022-08-14T09:39:55.537Z,2.75
2022-08-14T09:42:51.273Z,2.78
2022-08-14T09:45:40.292Z,2.65
2022-08-14T09:48:27.593Z,2.85
2022-08-14T09:50:57.462Z,3.25
2022-08-14T09:54:19.312Z,3.10
2022-08-14T09:56:56.738Z,2.85
2022-08-14T09:59:28.177Z,2.90
2022-08-14T10:01:57.007Z,2.85
2022-08-14T10:04:33.721Z,3.08
2022-08-14T10:07:08.384Z,2.97
2022-08-14T10:09:59.986Z,2.53
2022-08-14T10:12:45.865Z,2.65
2022-08-14T10:15:18.592Z,2.75
2022-08-14T10:17:46.757Z,2.65
2022-08-14T10:20:40.536Z,2.58
2022-08-14T10:23:21.945Z,3.20
2022-08-14T10:25:52.890Z,2.85
2022-08-14T10:29:03.891Z,3.20
2022-08-14T10:31:25.805Z,3.20
2022-08-14T10:34:01.441Z,3.15
2022-08-14T10:36:36.917Z,3.00
2022-08-14T10:39:15.769Z,3.22
2022-08-14T10:41:48.511Z,2.92
2022-08-14T10:44:23.079Z,3.22
2022-08-14T10:47:41.176Z,2.83
2022-08-14T10:50:06.353Z,2.83
2022-08-14T10:52:35.800Z,2.53
2022-08-14T10:55:08.096Z,2.90
2022-08-14T10:57:46.834Z,2.75
2022-08-14T11:00:20.766Z,2.88
2022-08-14T11:03:09.624Z,2.85
2022-08-14T11:05:52.143Z,2.50
2022-08-14T11:08:34.099Z,2.38
2022-08-14T11:11:05.346Z,2.80
2022-08-14T11:13:32.793Z,2.50
2022-08-14T11:16:02.041Z,2.88
2022-08-14T11:18:35.782Z,2.65
2022-08-14T11:21:06.957Z,2.40
2022-08-14T11:23:41.215Z,2.35
2022-08-14T11:26:13.543Z,2.60
2022-08-14T11:28:47.781Z,2.33
2022-08-14T11:31:23.657Z,2.03
2022-08-14T11:33:59.304Z,2.08
2022-08-14T11:36:57.201Z,1.83
2022-08-14T11:39:33.486Z,2.05
2022-08-14T11:42:55.673Z,1.92
2022-08-14T11:44:53.823Z,1.83
2022-08-14T11:47:24.613Z,2.30
2022-08-14T11:49:51.944Z,2.28
2022-08-14T11:52:19.465Z,2.47
2022-08-14T11:54:58.321Z,2.40
2022-08-14T11:57:26.273Z,2.13
2022-08-14T12:00:08.681Z,1.98
2022-08-14T12:03:02.819Z,2.00
2022-08-14T12:05:39.626Z,2.15
2022-08-14T12:08:12.217Z,2.20
2022-08-14T12:10:43.326Z,2.40
2022-08-14T12:13:19.244Z,2.00
2022-08-14T12:15:56.698Z,2.03
2022-08-14T12:18:39.887Z,2.40
2022-08-14T12:21:20.592Z,2.30
2022-08-14T12:24:02.589Z,1.90
2022-08-14T12:26:39.063Z,1.85
2022-08-14T12:29:14.389Z,1.98
2022-08-14T12:31:44.980Z,1.92
2022-08-14T12:34:20.448Z,2.10
2022-08-14T12:36:49.840Z,2.03
2022-08-14T12:39:23.771Z,2.83
2022-08-14T12:41:56.996Z,2.50
2022-08-14T12:44:32.259Z,2.47
2022-08-14T12:47:06.221Z,2.28
2022-08-14T12:49:34.361Z,2.22
2022-08-14T12:52:02.841Z,2.30
2022-08-14T12:54:32.130Z,2.10
2022-08-14T12:57:09.094Z,2.13
2022-08-14T12:59:42.660Z,1.90
2022-08-14T13:02:25.991Z,2.20
2022-08-14T13:04:56.523Z,2.13
2022-08-14T13:07:27.291Z,1.92
2022-08-14T13:10:00.837Z,2.20
2022-08-14T13:13:12.407Z,2.28
2022-08-14T13:15:38.264Z,1.90
2022-08-14T13:18:10.420Z,1.92
2022-08-14T13:20:37.749Z,1.98
2022-08-14T13:23:06.072Z,2.35
2022-08-14T13:25:35.365Z,2.25
2022-08-14T13:28:04.755Z,2.40
2022-08-14T13:30:40.170Z,2.20
2022-08-14T13:33:08.165Z,2.22
2022-08-14T13:35:46.049Z,2.10
2022-08-14T13:38:13.777Z,1.88
2022-08-14T13:40:43.766Z,4.32
2022-08-14T13:43:15.422Z,3.15
2022-08-14T13:46:00.498Z,2.45
2022-08-14T13:48:33.214Z,2.22
2022-08-14T13:51:07.907Z,2.78
2022-08-14T13:54:07.049Z,2.45
2022-08-14T13:56:39.081Z,2.20
2022-08-14T13:59:07.338Z,2.20
2022-08-14T14:01:42.926Z,2.13
2022-08-14T14:04:18.887Z,1.88
2022-08-14T14:06:49.250Z,2.08
2022-08-14T14:09:21.268Z,2.30
2022-08-14T14:11:53.000Z,2.50
2022-08-14T14:14:44.602Z,2.03
2022-08-14T14:17:12.543Z,2.25
2022-08-14T14:19:46.593Z,2.22
2022-08-14T14:22:35.938Z,2.35
2022-08-14T14:25:05.162Z,2.28
2022-08-14T14:27:41.692Z,2.85
2022-08-14T14:30:46.163Z,2.25
2022-08-14T14:33:02.129Z,1.75
2022-08-14T14:35:38.410Z,1.88
2022-08-14T14:38:08.828Z,2.40
2022-08-14T14:40:52.305Z,2.22
2022-08-14T14:43:26.364Z,2.20
2022-08-14T14:45:54.931Z,1.77
2022-08-14T14:48:23.334Z,1.90
2022-08-14T14:50:59.423Z,1.90
2022-08-14T14:53:38.562Z,2.03
2022-08-14T14:56:49.722Z,1.90
2022-08-14T14:58:56.530Z,1.90
2022-08-14T15:01:23.985Z,2.10
2022-08-14T15:03:54.072Z,2.50
2022-08-14T15:06:22.704Z,2.67
2022-08-14T15:08:59.692Z,2.28
2022-08-14T15:11:30.518Z,2.40
2022-08-14T15:14:00.254Z,2.58
2022-08-14T15:16:28.315Z,2.60
2022-08-14T15:18:55.047Z,2.20
2022-08-14T15:21:21.856Z,2.17
2022-08-14T15:23:51.492Z,2.10
2022-08-14T15:26:24.167Z,2.25
2022-08-14T15:29:02.742Z,2.60
2022-08-14T15:31:32.568Z,2.67
2022-08-14T15:34:43.299Z,2.17
2022-08-14T15:37:01.010Z,2.45
2022-08-14T15:39:33.810Z,2.50
2022-08-14T15:42:16.013Z,2.72
2022-08-14T15:44:56.827Z,2.20
2022-08-14T15:47:28.223Z,2.60
2022-08-14T15:50:04.677Z,2.50
2022-08-14T15:52:35.404Z,2.50
2022-08-14T15:55:07.962Z,2.22
2022-08-14T15:57:36.386Z,2.60
2022-08-14T16:00:44.453Z,2.72
2022-08-14T16:03:15.838Z,2.80
2022-08-14T16:05:46.038Z,2.30
2022-08-14T16:08:26.575Z,2.70
2022-08-14T16:10:54.426Z,2.40
2022-08-14T16:13:41.861Z,2.30
2022-08-14T16:16:34.434Z,2.08
2022-08-14T16:19:10.645Z,2.05
2022-08-14T16:21:40.805Z,2.28
2022-08-14T16:24:32.493Z,2.53
2022-08-14T16:27:00.420Z,2.38
2022-08-14T16:29:32.945Z,2.35
2022-08-14T16:32:33.499Z,2.22
2022-08-14T16:34:54.738Z,2.50
2022-08-14T16:37:30.572Z,2.28
2022-08-14T16:40:01.470Z,2.60
2022-08-14T16:42:38.625Z,2.47
2022-08-14T16:45:23.673Z,2.17
2022-08-14T16:47:50.802Z,2.08
2022-08-14T16:50:40.626Z,2.40
2022-08-14T16:53:07.227Z,2.33
2022-08-14T16:55:35.303Z,2.40
2022-08-14T16:58:21.446Z,2.20
2022-08-14T17:00:54.152Z,2.47
2022-08-14T17:03:21.451Z,2.80
2022-08-14T17:05:48.315Z,2.63
2022-08-14T17:08:31.967Z,2.45
2022-08-14T17:11:11.134Z,2.88
2022-08-14T17:13:59.737Z,3.30
2022-08-14T17:16:35.936Z,2.70
2022-08-14T17:19:05.578Z,3.13
2022-08-14T17:21:41.611Z,2.90
2022-08-14T17:24:56.787Z,3.05
2022-08-14T17:27:04.224Z,3.25
2022-08-14T17:29:34.839Z,3.08
2022-08-14T17:35:01.553Z,3.22
2022-08-14T17:37:34.249Z,3.17
2022-08-14T17:40:15.893Z,3.40
2022-08-14T17:42:51.496Z,3.08
2022-08-14T17:45:41.093Z,3.08
2022-08-14T17:49:14.660Z,2.85
2022-08-14T17:51:12.359Z,3.00
2022-08-14T17:53:39.346Z,2.65
2022-08-14T17:56:20.657Z,2.90
2022-08-14T17:58:49.382Z,2.75
2022-08-14T18:01:23.384Z,2.80
2022-08-14T18:03:53.908Z,3.00
2022-08-14T18:06:39.723Z,2.95
2022-08-14T18:09:26.319Z,3.00
2022-08-14T18:11:59.926Z,2.97
2022-08-14T18:14:32.293Z,2.78
2022-08-14T18:17:00.769Z,3.10
2022-08-14T18:19:30.117Z,2.92
2022-08-14T18:21:59.269Z,2.83
2022-08-14T18:24:29.706Z,2.83
2022-08-14T18:27:23.227Z,3.10
2022-08-14T18:29:54.929Z,2.78
2022-08-14T18:32:31.914Z,2.97
2022-08-14T18:35:02.374Z,3.22
2022-08-14T18:37:30.832Z,2.78
2022-08-14T18:40:20.051Z,3.30
2022-08-14T18:42:48.234Z,3.13
2022-08-14T18:45:28.892Z,2.90
2022-08-14T18:48:18.053Z,3.15
2022-08-14T18:50:52.663Z,3.00
2022-08-14T18:53:24.829Z,2.88
2022-08-14T18:56:02.034Z,2.95
2022-08-14T18:58:57.177Z,3.08
2022-08-14T19:01:29.813Z,2.70
2022-08-14T19:03:59.084Z,2.97
2022-08-14T19:06:41.506Z,2.95
2022-08-14T19:10:05.766Z,3.00
2022-08-14T19:12:55.024Z,2.80
2022-08-14T19:15:25.685Z,2.95
2022-08-14T19:18:14.033Z,2.60
2022-08-14T19:20:52.787Z,2.65
2022-08-14T19:23:23.531Z,2.85
2022-08-14T19:26:34.694Z,2.92
2022-08-14T19:29:24.321Z,3.13
2022-08-14T19:32:04.382Z,3.20
2022-08-14T19:34:36.512Z,3.22
2022-08-14T19:37:06.729Z,3.35
2022-08-14T19:39:54.532Z,3.30
2022-08-14T19:42:28.342Z,3.00
2022-08-14T19:44:58.095Z,2.92
2022-08-14T19:47:38.738Z,3.40
2022-08-14T19:50:38.028Z,3.28
2022-08-14T19:53:10.919Z,2.95
2022-08-14T19:55:45.431Z,3.03
2022-08-14T19:58:13.242Z,3.20
2022-08-14T20:00:52.585Z,3.53
2022-08-14T20:03:24.194Z,3.17
2022-08-14T20:06:03.281Z,3.22
2022-08-14T20:11:01.207Z,3.50
2022-08-14T20:11:42.935Z,3.40
2022-08-14T20:14:20.547Z,3.30
2022-08-14T20:16:54.658Z,3.17
2022-08-14T20:19:29.214Z,3.30
2022-08-14T20:22:34.671Z,3.50
2022-08-14T20:24:47.233Z,3.27
2022-08-14T20:27:40.162Z,3.47
2022-08-14T20:30:33.415Z,3.27
2022-08-14T20:33:01.704Z,3.43
2022-08-14T20:35:49.294Z,3.20
2022-08-14T20:38:32.610Z,3.40
2022-08-14T20:41:05.862Z,2.90
2022-08-14T20:43:57.578Z,3.37
2022-08-14T20:46:38.702Z,3.60
2022-08-14T20:49:16.013Z,3.40
2022-08-14T20:51:47.620Z,3.73
2022-08-14T20:54:34.544Z,3.30
2022-08-14T20:57:17.877Z,3.80
2022-08-14T20:59:53.456Z,3.23
2022-08-14T21:02:49.867Z,3.03
2022-08-14T21:05:34.132Z,3.23
2022-08-14T21:08:08.443Z,3.37
2022-08-14T21:10:44.406Z,3.60
2022-08-14T21:13:29.114Z,3.80
2022-08-14T21:16:33.686Z,3.77
2022-08-14T21:18:58.181Z,3.23
2022-08-14T21:21:40.708Z,3.20
2022-08-14T21:24:38.818Z,3.63
2022-08-14T21:27:12.786Z,3.90
2022-08-14T21:29:53.466Z,3.03
2022-08-14T21:32:34.080Z,3.57
2022-08-14T21:35:08.362Z,3.50
2022-08-14T21:37:44.897Z,4.07
2022-08-14T21:40:39.884Z,3.57
2022-08-14T21:43:02.538Z,4.00
2022-08-14T21:45:31.753Z,4.03
2022-08-14T21:48:09.144Z,4.23
2022-08-14T21:51:00.447Z,4.17
2022-08-14T21:53:30.870Z,3.97
2022-08-14T21:55:58.654Z,3.73
2022-08-14T21:58:53.299Z,3.70
2022-08-14T22:01:16.230Z,3.80
2022-08-14T22:03:54.533Z,3.97
2022-08-14T22:06:29.001Z,3.80
2022-08-14T22:08:57.915Z,4.03
2022-08-14T22:11:25.691Z,4.03
2022-08-14T22:13:56.219Z,3.80
2022-08-14T22:17:01.662Z,3.57
2022-08-14T22:19:19.011Z,3.27
2022-08-14T22:24:38.636Z,3.73
2022-08-14T22:27:19.073Z,3.93
2022-08-14T22:29:54.708Z,3.63
2022-08-14T22:32:30.167Z,4.33
2022-08-14T22:35:12.318Z,3.73
2022-08-14T22:37:44.639Z,3.73
2022-08-14T22:40:55.201Z,4.00
2022-08-14T22:43:08.103Z,3.67
2022-08-14T22:45:37.783Z,3.43
2022-08-14T22:48:11.142Z,3.77
2022-08-14T22:50:49.198Z,3.43
2022-08-14T22:53:21.754Z,3.70
2022-08-14T22:55:52.138Z,3.87
2022-08-14T22:58:31.824Z,3.87
2022-08-14T23:01:10.215Z,3.37
2022-08-14T23:03:42.333Z,3.87
2022-08-14T23:07:02.964Z,3.67
2022-08-14T23:09:35.869Z,3.83
2022-08-14T23:11:49.229Z,3.77
2022-08-14T23:14:23.887Z,4.10
2022-08-14T23:16:57.450Z,3.80
2022-08-14T23:19:33.859Z,3.57
2022-08-14T23:22:04.969Z,3.43
2022-08-14T23:24:31.918Z,3.80
2022-08-14T23:26:58.934Z,3.80
2022-08-14T23:29:27.229Z,3.30
2022-08-14T23:31:59.224Z,4.03
2022-08-14T23:34:29.404Z,3.83
2022-08-14T23:36:57.640Z,4.10
2022-08-14T23:39:33.115Z,4.17
2022-08-14T23:42:08.392Z,4.03
2022-08-14T23:44:37.626Z,3.50
2022-08-14T23:47:11.709Z,3.77
2022-08-14T23:50:01.269Z,3.43
2022-08-14T23:53:06.477Z,3.90
2022-08-14T23:55:28.698Z,3.77
2022-08-14T23:57:58.556Z,4.30
